Time;durP1;ratioP1;P1;durP2;ratioP2;P2;SDS_P1;SDS_P2;PMS_P1;PMS_P2;Temp;Humidity;BMP_temperature;BMP_pressure;BME280_temperature;BME280_humidity;BME280_pressure;Samples;Min_cycle;Max_cycle;Signal;HPM_P1;HPM_P2
2023/01/27 00:02:22;;;;;;;2.78;1.00;;;20.40;32.10;;;;;;5027462;28;20036;-49
2023/01/27 00:04:48;;;;;;;3.15;1.10;;;20.30;32.10;;;;;;5026399;28;20117;-53
2023/01/27 00:07:14;;;;;;;3.50;0.90;;;20.40;32.10;;;;;;5029193;28;20463;-47
2023/01/27 00:09:40;;;;;;;2.58;1.00;;;20.40;32.10;;;;;;5029214;28;20033;-47
2023/01/27 00:15:01;;;;;;;3.90;1.23;;;20.40;32.10;;;;;;5025622;28;20026;-52
2023/01/27 00:17:26;;;;;;;2.67;1.10;;;20.30;32.00;;;;;;5025123;28;20105;-50
2023/01/27 00:19:52;;;;;;;3.25;0.80;;;20.30;32.10;;;;;;5022843;28;20365;-49
2023/01/27 00:25:03;;;;;;;4.85;1.02;;;20.30;32.20;;;;;;5021651;28;20485;-51
2023/01/27 00:27:29;;;;;;;3.75;1.20;;;20.30;32.20;;;;;;5028119;28;20033;-48
2023/01/27 00:29:56;;;;;;;3.40;1.20;;;20.30;32.20;;;;;;5009195;28;20048;-52
2023/01/27 00:35:09;;;;;;;3.25;0.98;;;20.30;32.20;;;;;;5028206;28;20021;-53
2023/01/27 00:37:35;;;;;;;2.55;0.90;;;20.30;32.20;;;;;;5023312;28;20361;-49
2023/01/27 00:40:05;;;;;;;2.38;1.00;;;20.30;32.20;;;;;;5008873;28;20045;-51
2023/01/27 00:42:31;;;;;;;3.42;1.05;;;20.30;32.10;;;;;;5024073;28;20437;-54
2023/01/27 00:47:42;;;;;;;2.33;0.90;;;20.30;32.10;;;;;;5008433;28;20047;-50
2023/01/27 00:50:08;;;;;;;2.88;0.88;;;20.20;32.00;;;;;;5025071;28;20376;-52
2023/01/27 00:52:34;;;;;;;2.95;0.90;;;20.20;32.00;;;;;;5010064;28;20120;-50
2023/01/27 00:55:00;;;;;;;3.30;1.25;;;20.20;32.00;;;;;;5029272;28;20043;-49
2023/01/27 00:57:26;;;;;;;2.97;0.90;;;20.30;32.00;;;;;;5029485;28;20030;-50
2023/01/27 00:59:52;;;;;;;4.68;1.38;;;20.20;32.00;;;;;;5029989;28;20373;-49
2023/01/27 01:02:18;;;;;;;2.90;0.88;;;20.20;32.00;;;;;;5013369;28;20021;-49
2023/01/27 01:04:44;;;;;;;4.55;1.00;;;20.20;32.00;;;;;;5032442;28;20033;-50
2023/01/27 01:07:09;;;;;;;2.33;0.75;;;20.20;32.00;;;;;;5027271;28;20029;-49
2023/01/27 01:09:35;;;;;;;2.75;1.17;;;20.20;32.00;;;;;;5032660;28;20025;-50
2023/01/27 01:12:02;;;;;;;2.35;0.77;;;20.20;32.00;;;;;;5012622;28;20099;-51
2023/01/27 01:14:29;;;;;;;1.88;0.77;;;20.20;32.00;;;;;;5031635;28;20029;-50
2023/01/27 01:16:55;;;;;;;3.08;0.88;;;20.20;32.00;;;;;;5012180;28;20033;-46
2023/01/27 01:19:21;;;;;;;3.33;0.88;;;20.20;32.00;;;;;;5026437;28;20033;-49
2023/01/27 01:21:47;;;;;;;3.47;0.90;;;20.20;31.90;;;;;;5028648;28;20038;-52
2023/01/27 01:24:13;;;;;;;2.70;1.00;;;20.20;31.90;;;;;;5029611;28;20039;-51
2023/01/27 01:26:39;;;;;;;3.55;0.95;;;20.20;31.90;;;;;;5032876;28;20033;-54
2023/01/27 01:29:05;;;;;;;5.10;1.15;;;20.20;31.90;;;;;;5013970;28;20032;-51
2023/01/27 01:31:31;;;;;;;3.45;1.05;;;20.20;31.90;;;;;;5032468;28;20021;-50
2023/01/27 01:33:56;;;;;;;2.55;1.02;;;20.10;31.80;;;;;;5012899;28;20460;-53
2023/01/27 01:36:22;;;;;;;3.85;1.10;;;20.20;31.90;;;;;;5028748;28;20029;-50
2023/01/27 01:38:53;;;;;;;2.55;1.08;;;20.10;31.90;;;;;;5025696;28;20444;-52
2023/01/27 01:41:20;;;;;;;2.45;1.05;;;20.20;31.90;;;;;;5031652;28;20022;-47
2023/01/27 01:43:47;;;;;;;1.92;0.90;;;20.10;31.80;;;;;;5017826;28;20116;-48
2023/01/27 01:46:13;;;;;;;4.25;1.40;;;20.10;31.80;;;;;;5029307;28;20041;-52
2023/01/27 01:48:54;;;;;;;2.42;1.10;;;20.10;31.90;;;;;;5034866;28;20083;-50
2023/01/27 01:51:38;;;;;;;2.28;0.85;;;20.10;31.80;;;;;;5012759;28;20422;-48
2023/01/27 01:54:29;;;;;;;3.28;1.00;;;20.10;31.90;;;;;;5013294;28;20044;-48
2023/01/27 01:57:03;;;;;;;3.80;1.08;;;20.10;31.80;;;;;;5028479;28;20029;-49
2023/01/27 01:59:35;;;;;;;2.03;1.00;;;20.10;31.90;;;;;;5011227;28;20037;-49
2023/01/27 02:02:11;;;;;;;3.85;1.10;;;20.10;31.90;;;;;;5032413;28;20022;-51
2023/01/27 02:04:45;;;;;;;3.13;1.20;;;20.00;31.80;;;;;;5027264;28;20052;-50
2023/01/27 02:07:37;;;;;;;2.17;0.80;;;20.10;31.90;;;;;;5030325;28;20282;-52
2023/01/27 02:10:04;;;;;;;2.60;1.30;;;20.10;31.90;;;;;;5000589;28;20033;-52
2023/01/27 02:12:34;;;;;;;2.78;0.98;;;20.10;31.90;;;;;;5028767;28;20728;-50
2023/01/27 02:15:00;;;;;;;3.40;1.00;;;20.10;31.90;;;;;;5026938;28;20029;-48
2023/01/27 02:17:27;;;;;;;3.45;1.10;;;20.00;31.90;;;;;;5034233;28;20052;-52
2023/01/27 02:20:27;;;;;;;2.05;1.00;;;20.00;31.90;;;;;;5014454;28;20055;-49
2023/01/27 02:22:56;;;;;;;3.85;1.17;;;20.00;31.90;;;;;;4994781;28;20467;-52
2023/01/27 02:26:01;;;;;;;2.70;1.15;;;20.00;31.90;;;;;;4993537;28;20037;-50
2023/01/27 02:28:28;;;;;;;2.17;1.00;;;20.00;31.90;;;;;;4995515;28;20030;-58
2023/01/27 02:30:54;;;;;;;3.63;1.00;;;20.00;32.00;;;;;;4993246;28;20061;-51
2023/01/27 02:33:20;;;;;;;3.17;1.20;;;20.00;32.00;;;;;;4995833;28;20030;-49
2023/01/27 02:35:51;;;;;;;2.60;0.93;;;20.00;32.00;;;;;;4994555;28;20034;-50
2023/01/27 02:38:18;;;;;;;2.88;1.20;;;20.00;32.00;;;;;;4995719;28;20042;-52
2023/01/27 02:40:48;;;;;;;3.92;0.98;;;20.00;32.00;;;;;;4993115;28;20022;-50
2023/01/27 02:43:14;;;;;;;3.05;1.38;;;20.00;32.00;;;;;;4996590;28;20526;-53
2023/01/27 02:45:41;;;;;;;2.75;1.08;;;20.00;32.00;;;;;;4994363;28;20096;-52
2023/01/27 02:48:07;;;;;;;2.08;1.10;;;20.00;32.10;;;;;;5006558;28;20041;-53
2023/01/27 02:50:33;;;;;;;3.72;1.20;;;19.90;32.00;;;;;;4993447;28;20032;-48
2023/01/27 02:52:59;;;;;;;2.78;1.15;;;20.00;32.10;;;;;;4993469;28;20104;-50
2023/01/27 02:55:25;;;;;;;1.92;0.93;;;20.00;32.20;;;;;;4995303;28;20044;-49
2023/01/27 02:57:51;;;;;;;2.20;0.95;;;19.90;32.10;;;;;;4994088;28;20038;-47
2023/01/27 03:00:45;;;;;;;2.90;1.35;;;19.90;32.10;;;;;;4983164;28;20046;-48
2023/01/27 03:03:12;;;;;;;2.80;1.30;;;19.90;32.10;;;;;;5010164;28;20022;-48
2023/01/27 03:05:39;;;;;;;2.60;1.40;;;19.90;32.20;;;;;;5006902;28;20419;-50
2023/01/27 03:08:06;;;;;;;3.92;1.45;;;19.90;32.20;;;;;;4993210;28;20112;-47
2023/01/27 03:10:31;;;;;;;2.85;1.40;;;19.90;32.30;;;;;;4992435;28;20109;-47
2023/01/27 03:12:57;;;;;;;4.40;1.95;;;19.90;32.30;;;;;;4995556;28;20105;-48
2023/01/27 03:18:12;;;;;;;2.15;1.20;;;19.90;32.30;;;;;;4991174;28;20044;-50
2023/01/27 03:20:40;;;;;;;2.53;1.27;;;19.90;32.30;;;;;;4997626;28;20046;-51
2023/01/27 03:23:07;;;;;;;2.38;1.40;;;19.90;32.40;;;;;;5009863;28;20132;-46
2023/01/27 03:25:34;;;;;;;2.90;1.40;;;19.90;32.30;;;;;;5004347;28;20030;-48
2023/01/27 03:28:01;;;;;;;3.92;1.60;;;19.90;32.40;;;;;;5004949;28;20377;-47
2023/01/27 03:30:45;;;;;;;3.08;1.63;;;19.90;32.30;;;;;;5013510;28;20523;-45
2023/01/27 03:33:19;;;;;;;2.75;1.20;;;19.90;32.30;;;;;;5010656;28;20129;-49
2023/01/27 03:47:05;;;;;;;2.63;1.10;;;19.80;32.20;;;;;;5009966;28;20075;-47
2023/01/27 03:49:31;;;;;;;1.83;1.33;;;19.80;32.20;;;;;;5001668;28;20022;-49
2023/01/27 03:51:57;;;;;;;2.92;1.27;;;19.80;32.20;;;;;;5009359;28;20052;-48
2023/01/27 03:54:22;;;;;;;2.38;1.13;;;19.80;32.20;;;;;;5009209;28;20092;-48
2023/01/27 03:56:48;;;;;;;2.08;1.13;;;19.80;32.20;;;;;;5007950;28;20026;-48
2023/01/27 03:59:16;;;;;;;2.95;1.40;;;19.80;32.20;;;;;;5008434;28;20073;-54
2023/01/27 04:01:42;;;;;;;1.95;1.25;;;19.80;32.20;;;;;;5008886;28;20437;-47
2023/01/27 04:06:59;;;;;;;2.63;1.13;;;19.80;32.10;;;;;;5008980;28;20018;-45
2023/01/27 04:09:33;;;;;;;2.17;1.08;;;19.80;32.10;;;;;;5011354;28;20045;-49
2023/01/27 04:12:03;;;;;;;2.65;1.20;;;19.80;32.10;;;;;;5004015;28;20331;-47
2023/01/27 04:14:32;;;;;;;2.00;0.88;;;19.80;32.10;;;;;;5006319;28;20068;-47
2023/01/27 04:17:04;;;;;;;1.30;0.95;;;19.70;32.00;;;;;;5007237;28;20057;-45
2023/01/27 04:19:30;;;;;;;1.52;0.98;;;19.80;32.00;;;;;;5007863;28;20041;-47
2023/01/27 04:21:57;;;;;;;2.08;0.93;;;19.70;32.00;;;;;;5019090;28;20042;-48
2023/01/27 04:24:23;;;;;;;1.40;0.90;;;19.70;31.90;;;;;;5001638;28;20037;-45
2023/01/27 04:27:00;;;;;;;2.38;1.00;;;19.70;31.90;;;;;;5006987;28;20026;-46
2023/01/27 04:29:31;;;;;;;1.50;0.80;;;19.70;31.90;;;;;;5009414;28;20026;-45
2023/01/27 04:31:57;;;;;;;1.88;1.08;;;19.70;31.90;;;;;;5014891;28;20036;-45
2023/01/27 04:34:24;;;;;;;1.52;0.88;;;19.70;31.90;;;;;;5014449;28;20117;-50
2023/01/27 04:36:51;;;;;;;2.35;1.00;;;19.70;31.90;;;;;;5007900;28;20026;-51
2023/01/27 04:39:17;;;;;;;2.20;0.90;;;19.70;31.90;;;;;;5011867;28;20089;-52
2023/01/27 04:41:44;;;;;;;2.58;1.05;;;19.70;31.90;;;;;;5008752;28;20048;-49
2023/01/27 04:44:11;;;;;;;1.13;0.70;;;19.70;31.90;;;;;;5008451;28;20037;-48
2023/01/27 04:46:37;;;;;;;1.15;0.90;;;19.70;31.90;;;;;;5011427;28;20034;-47
2023/01/27 04:49:04;;;;;;;1.60;0.80;;;19.70;31.90;;;;;;5013584;28;20057;-50
2023/01/27 04:51:30;;;;;;;1.15;0.75;;;19.70;31.90;;;;;;5007191;28;20116;-45
2023/01/27 04:53:55;;;;;;;1.40;0.70;;;19.70;32.00;;;;;;5015149;28;20113;-48
2023/01/27 04:56:27;;;;;;;1.13;0.70;;;19.70;32.00;;;;;;5012480;28;20033;-47
2023/01/27 04:58:57;;;;;;;1.30;0.80;;;19.70;32.00;;;;;;5016791;28;20033;-48
2023/01/27 05:01:23;;;;;;;1.35;0.85;;;19.70;32.00;;;;;;5011938;28;20146;-48
2023/01/27 05:03:49;;;;;;;2.65;0.90;;;19.70;32.20;;;;;;5016210;28;20121;-50
2023/01/27 05:06:15;;;;;;;1.63;0.80;;;19.70;32.20;;;;;;5007986;28;20117;-49
2023/01/27 05:08:41;;;;;;;1.27;0.70;;;19.70;32.20;;;;;;5014901;28;20034;-50
2023/01/27 05:11:08;;;;;;;2.03;0.73;;;19.70;32.20;;;;;;5010565;28;20045;-51
2023/01/27 05:13:34;;;;;;;0.90;0.50;;;19.60;32.20;;;;;;5009582;28;20038;-49
2023/01/27 05:16:08;;;;;;;1.55;0.93;;;19.70;32.10;;;;;;5007875;28;20037;-49
2023/01/27 05:18:35;;;;;;;0.73;0.47;;;19.70;32.10;;;;;;5010815;28;20046;-49
2023/01/27 05:21:02;;;;;;;1.10;0.70;;;19.60;32.00;;;;;;5017952;28;20046;-48
2023/01/27 05:23:34;;;;;;;1.17;0.70;;;19.60;32.00;;;;;;5034486;28;20497;-48
2023/01/27 05:26:18;;;;;;;1.30;0.50;;;19.60;32.00;;;;;;5029421;28;20039;-50
2023/01/27 05:28:45;;;;;;;0.95;0.65;;;19.60;32.00;;;;;;5034498;28;20029;-49
2023/01/27 05:31:20;;;;;;;1.60;0.70;;;19.60;31.90;;;;;;5028869;28;20349;-51
2023/01/27 05:33:48;;;;;;;0.95;0.57;;;19.60;31.90;;;;;;5027769;28;20164;-46
2023/01/27 05:36:17;;;;;;;1.30;0.70;;;19.60;31.90;;;;;;5026273;28;20087;-49
2023/01/27 05:38:43;;;;;;;1.50;0.75;;;19.60;31.90;;;;;;5027198;28;20037;-52
2023/01/27 05:41:11;;;;;;;0.70;0.57;;;19.60;31.90;;;;;;5009684;28;20026;-49
2023/01/27 05:43:39;;;;;;;0.80;0.57;;;19.60;31.90;;;;;;5031229;28;20057;-50
2023/01/27 05:46:14;;;;;;;1.40;0.70;;;19.60;31.90;;;;;;5029401;28;20445;-50
2023/01/27 05:48:46;;;;;;;1.45;0.95;;;19.60;31.90;;;;;;5025629;28;20085;-52
2023/01/27 05:51:14;;;;;;;0.95;0.57;;;19.60;31.90;;;;;;5033580;28;20364;-52
2023/01/27 05:53:41;;;;;;;1.02;0.60;;;19.60;32.00;;;;;;5031795;28;20041;-50
2023/01/27 05:56:09;;;;;;;0.88;0.60;;;19.60;32.60;;;;;;5027440;28;20030;-50
2023/01/27 05:58:35;;;;;;;0.75;0.50;;;19.60;32.00;;;;;;5025683;28;20053;-50
2023/01/27 06:01:23;;;;;;;0.65;0.55;;;19.60;32.00;;;;;;5024993;28;20524;-51
2023/01/27 06:03:49;;;;;;;1.02;0.60;;;19.60;32.00;;;;;;5029622;28;20037;-49
2023/01/27 06:06:17;;;;;;;1.17;0.55;;;19.60;32.00;;;;;;5028620;28;20099;-50
2023/01/27 06:08:44;;;;;;;0.57;0.50;;;19.60;32.00;;;;;;5028449;28;20048;-48
2023/01/27 06:11:10;;;;;;;0.57;0.50;;;19.60;32.00;;;;;;5031702;28;20026;-49
2023/01/27 06:13:40;;;;;;;1.25;0.50;;;19.50;32.00;;;;;;5030873;28;20556;-46
2023/01/27 06:16:09;;;;;;;1.38;0.60;;;19.50;32.00;;;;;;5030167;28;20121;-47
2023/01/27 06:18:36;;;;;;;0.50;0.50;;;19.50;32.00;;;;;;5025347;28;20049;-50
2023/01/27 06:21:04;;;;;;;0.70;0.50;;;19.50;32.00;;;;;;5028661;28;20042;-53
2023/01/27 06:23:30;;;;;;;0.80;0.50;;;19.50;32.00;;;;;;5032793;28;20110;-52
2023/01/27 06:26:05;;;;;;;0.63;0.50;;;19.50;32.00;;;;;;5029008;28;20426;-49
2023/01/27 06:28:31;;;;;;;1.13;0.50;;;19.50;32.00;;;;;;5027857;28;20030;-50
2023/01/27 06:31:08;;;;;;;1.67;0.52;;;19.50;32.00;;;;;;5029235;28;20026;-52
2023/01/27 06:33:34;;;;;;;1.23;0.52;;;19.50;32.00;;;;;;5029688;28;20030;-51
2023/01/27 06:36:06;;;;;;;0.60;0.50;;;19.50;32.00;;;;;;5028059;28;20426;-47
2023/01/27 06:38:32;;;;;;;1.02;0.63;;;19.50;32.00;;;;;;5030347;28;20076;-47
2023/01/27 06:40:59;;;;;;;0.77;0.40;;;19.50;32.00;;;;;;5030275;28;20057;-50
2023/01/27 06:43:25;;;;;;;1.40;0.60;;;19.50;32.20;;;;;;5016474;28;20113;-51
2023/01/27 06:45:52;;;;;;;0.98;0.52;;;19.50;32.20;;;;;;5021932;28;20037;-49
2023/01/27 06:48:18;;;;;;;0.50;0.40;;;19.50;32.30;;;;;;5014845;28;20072;-48
2023/01/27 06:50:44;;;;;;;1.27;0.30;;;19.50;32.30;;;;;;5026156;28;20033;-51
2023/01/27 06:53:10;;;;;;;0.80;0.47;;;19.50;32.30;;;;;;5029032;28;20030;-50
2023/01/27 06:55:40;;;;;;;0.80;0.55;;;19.50;32.30;;;;;;5028166;28;20029;-52
2023/01/27 06:58:11;;;;;;;0.85;0.32;;;19.50;32.30;;;;;;5028240;28;20048;-51
2023/01/27 07:00:38;;;;;;;1.20;0.40;;;19.50;32.30;;;;;;5023970;28;20057;-50
2023/01/27 07:03:04;;;;;;;1.33;0.50;;;19.50;32.30;;;;;;5029433;28;20025;-48
2023/01/27 07:05:31;;;;;;;1.13;0.40;;;19.50;32.20;;;;;;5025727;28;20108;-52
2023/01/27 07:07:58;;;;;;;0.40;0.35;;;19.50;32.30;;;;;;5029227;28;20033;-50
2023/01/27 07:10:24;;;;;;;1.17;0.43;;;19.40;32.20;;;;;;5006618;28;20041;-47
2023/01/27 07:13:23;;;;;;;0.45;0.40;;;19.40;32.20;;;;;;5050001;28;20774;-48
2023/01/27 07:15:56;;;;;;;0.93;0.40;;;19.40;32.20;;;;;;5051497;28;20049;-45
2023/01/27 07:18:22;;;;;;;2.75;0.63;;;19.50;32.20;;;;;;5048640;28;20025;-45
2023/01/27 07:20:48;;;;;;;0.95;0.60;;;19.40;32.10;;;;;;5048286;28;20043;-47
2023/01/27 07:23:13;;;;;;;1.30;0.57;;;19.40;32.00;;;;;;5052347;28;20074;-51
2023/01/27 07:25:39;;;;;;;1.48;0.47;;;19.40;32.10;;;;;;5053229;28;20396;-49
2023/01/27 07:28:05;;;;;;;0.73;0.40;;;19.40;32.10;;;;;;5050712;28;20055;-45
2023/01/27 07:30:32;;;;;;;1.13;0.60;;;19.40;32.10;;;;;;5059079;28;20029;-46
2023/01/27 07:33:07;;;;;;;0.93;0.47;;;19.40;32.20;;;;;;5050121;28;20057;-45
2023/01/27 07:35:34;;;;;;;1.58;0.52;;;19.40;32.20;;;;;;5047112;28;20026;-47
2023/01/27 07:38:01;;;;;;;0.95;0.40;;;19.40;32.20;;;;;;5050242;28;20420;-46
2023/01/27 07:40:26;;;;;;;2.13;0.47;;;19.40;32.20;;;;;;5054265;28;20022;-51
2023/01/27 07:42:52;;;;;;;2.35;0.50;;;19.40;32.30;;;;;;5053838;28;20032;-50
2023/01/27 07:45:18;;;;;;;0.75;0.32;;;19.40;32.40;;;;;;5047805;28;20515;-47
2023/01/27 07:47:44;;;;;;;1.33;0.32;;;19.40;32.50;;;;;;5048824;28;20159;-49
2023/01/27 07:50:11;;;;;;;1.33;0.40;;;19.40;33.10;;;;;;5059768;28;20337;-48
2023/01/27 07:52:37;;;;;;;1.38;0.30;;;19.50;32.50;;;;;;5048718;28;20041;-50
2023/01/27 07:55:03;;;;;;;1.48;0.50;;;19.60;32.50;;;;;;5048593;28;20044;-46
2023/01/27 07:57:29;;;;;;;0.73;0.30;;;19.60;32.40;;;;;;5049477;28;20036;-47
2023/01/27 07:59:55;;;;;;;1.58;0.50;;;19.60;32.40;;;;;;5050635;28;20033;-46
2023/01/27 08:02:27;;;;;;;1.25;0.52;;;19.70;32.40;;;;;;5050727;28;20404;-49
2023/01/27 08:04:53;;;;;;;1.52;0.43;;;19.70;32.30;;;;;;5046752;28;20067;-50
2023/01/27 08:07:19;;;;;;;2.78;0.63;;;19.80;32.20;;;;;;5048636;28;20056;-47
2023/01/27 08:09:45;;;;;;;1.10;0.40;;;19.80;32.20;;;;;;5053150;28;20082;-47
2023/01/27 08:12:11;;;;;;;1.58;0.45;;;19.90;32.10;;;;;;5063094;28;20418;-51
2023/01/27 08:14:36;;;;;;;1.95;0.60;;;20.00;32.10;;;;;;5053614;28;20039;-52
2023/01/27 08:17:02;;;;;;;2.15;0.70;;;20.00;32.00;;;;;;5078710;28;20063;-51
2023/01/27 08:19:28;;;;;;;1.23;0.63;;;20.00;32.00;;;;;;5066685;28;20424;-47
2023/01/27 08:21:54;;;;;;;0.90;0.35;;;20.10;32.00;;;;;;5056510;28;20090;-46
2023/01/27 08:24:20;;;;;;;1.10;0.40;;;20.10;31.90;;;;;;5057657;28;20344;-50
2023/01/27 08:26:45;;;;;;;1.77;0.60;;;20.20;31.90;;;;;;5065253;28;20063;-52
2023/01/27 08:29:11;;;;;;;1.95;0.50;;;20.20;31.80;;;;;;5059988;28;20570;-51
2023/01/27 08:31:37;;;;;;;3.58;0.85;;;20.20;31.70;;;;;;5061570;28;20087;-49
2023/01/27 08:34:03;;;;;;;1.58;0.60;;;20.30;31.70;;;;;;5064553;28;20480;-46
2023/01/27 08:36:29;;;;;;;1.42;0.40;;;20.40;31.60;;;;;;5060125;28;20051;-49
2023/01/27 08:38:55;;;;;;;0.82;0.43;;;20.40;31.50;;;;;;5056677;28;20111;-50
2023/01/27 08:41:25;;;;;;;1.58;0.50;;;20.40;31.40;;;;;;5047751;28;20920;-51
2023/01/27 08:43:53;;;;;;;1.63;0.60;;;20.50;31.40;;;;;;5062581;28;20028;-49
2023/01/27 08:46:20;;;;;;;1.88;0.45;;;20.50;31.40;;;;;;5065931;28;20479;-50
2023/01/27 08:48:45;;;;;;;1.27;0.50;;;20.50;31.30;;;;;;5062760;28;20361;-50
2023/01/27 08:51:13;;;;;;;2.13;0.50;;;20.60;31.30;;;;;;5065680;28;20028;-51
2023/01/27 08:53:40;;;;;;;0.75;0.40;;;20.60;31.20;;;;;;5046884;28;20348;-49
2023/01/27 08:56:10;;;;;;;0.45;0.40;;;20.60;31.10;;;;;;5066887;28;20028;-47
2023/01/27 08:58:36;;;;;;;0.95;0.30;;;20.70;31.00;;;;;;5067513;28;20044;-46
2023/01/27 09:01:04;;;;;;;1.20;0.40;;;20.70;31.00;;;;;;5064215;28;20060;-49
2023/01/27 09:03:31;;;;;;;1.25;0.50;;;20.70;30.90;;;;;;5061469;28;20090;-51
2023/01/27 09:05:57;;;;;;;1.42;0.40;;;20.70;30.80;;;;;;5045538;28;20357;-46
2023/01/27 09:08:24;;;;;;;0.50;0.40;;;20.80;30.80;;;;;;5063757;28;20044;-45
2023/01/27 09:10:50;;;;;;;2.33;0.50;;;20.70;30.70;;;;;;5064958;28;20088;-52
2023/01/27 09:13:17;;;;;;;0.75;0.30;;;20.80;30.70;;;;;;5064166;28;20077;-50
2023/01/27 09:15:43;;;;;;;0.50;0.30;;;20.80;30.60;;;;;;5061987;28;20060;-50
2023/01/27 09:18:09;;;;;;;0.82;0.30;;;20.80;30.60;;;;;;5065727;28;20518;-51
2023/01/27 09:20:36;;;;;;;1.30;0.40;;;20.80;30.50;;;;;;5065076;28;20020;-47
2023/01/27 09:23:03;;;;;;;0.88;0.30;;;20.80;30.50;;;;;;5065080;28;20032;-47
2023/01/27 09:25:28;;;;;;;1.00;0.43;;;20.80;30.50;;;;;;5063383;28;20032;-50
2023/01/27 09:27:56;;;;;;;0.93;0.35;;;20.80;30.50;;;;;;5062667;28;20024;-50
2023/01/27 09:30:23;;;;;;;0.88;0.43;;;20.80;30.40;;;;;;5065743;28;20017;-52
2023/01/27 09:32:49;;;;;;;0.40;0.30;;;20.80;30.40;;;;;;5063517;28;20045;-47
2023/01/27 09:35:15;;;;;;;0.73;0.28;;;20.80;30.40;;;;;;5061963;28;20106;-55
2023/01/27 09:37:52;;;;;;;0.85;0.35;;;20.80;30.40;;;;;;5067451;28;20025;-51
2023/01/27 09:40:35;;;;;;;0.30;0.30;;;20.80;30.40;;;;;;5063331;28;20107;-50
2023/01/27 09:43:40;;;;;;;0.77;0.35;;;20.80;30.40;;;;;;5059979;28;20024;-49
2023/01/27 09:46:15;;;;;;;1.50;0.45;;;20.80;30.40;;;;;;5063805;28;20020;-48
2023/01/27 09:49:08;;;;;;;0.85;0.35;;;20.70;30.30;;;;;;5065984;28;20024;-54
2023/01/27 09:51:43;;;;;;;0.17;0.10;;;20.70;30.30;;;;;;5044203;28;20072;-49
2023/01/27 09:54:14;;;;;;;0.70;0.30;;;20.70;30.30;;;;;;5065357;28;20032;-50
2023/01/27 09:56:46;;;;;;;0.47;0.30;;;20.70;30.30;;;;;;5045479;28;20373;-53
2023/01/27 09:59:33;;;;;;;0.30;0.20;;;20.70;30.30;;;;;;5064713;28;20036;-53
2023/01/27 10:02:07;;;;;;;0.82;0.30;;;20.70;30.30;;;;;;5063540;28;20444;-49
2023/01/27 10:05:07;;;;;;;0.60;0.40;;;20.70;30.40;;;;;;5062269;28;20092;-48
2023/01/27 10:07:46;;;;;;;0.30;0.22;;;20.70;30.40;;;;;;5062604;28;20402;-50
2023/01/27 10:10:32;;;;;;;0.50;0.20;;;20.70;30.40;;;;;;5042770;28;20041;-51
2023/01/27 10:13:04;;;;;;;0.75;0.20;;;20.70;30.40;;;;;;5060722;28;20145;-51
2023/01/27 10:15:33;;;;;;;0.40;0.30;;;20.70;30.40;;;;;;5063947;28;20025;-47
2023/01/27 10:18:11;;;;;;;0.43;0.20;;;20.70;30.40;;;;;;5058990;28;20638;-47
2023/01/27 10:20:54;;;;;;;1.13;0.47;;;20.60;30.30;;;;;;5064887;28;20456;-49
2023/01/27 10:23:40;;;;;;;0.28;0.20;;;20.70;30.40;;;;;;5066164;28;20028;-49
2023/01/27 10:26:17;;;;;;;0.63;0.30;;;20.60;30.40;;;;;;5063930;28;20363;-51
2023/01/27 10:28:50;;;;;;;0.50;0.47;;;20.60;30.40;;;;;;5061022;28;20032;-46
2023/01/27 10:31:29;;;;;;;0.85;0.20;;;20.60;30.40;;;;;;5061127;28;20079;-50
2023/01/27 10:34:02;;;;;;;0.20;0.20;;;20.60;30.40;;;;;;5063662;28;20029;-50
2023/01/27 10:36:33;;;;;;;0.60;0.20;;;20.60;30.30;;;;;;5062334;28;20036;-50
2023/01/27 10:39:02;;;;;;;0.82;0.32;;;20.70;30.40;;;;;;5063043;28;20060;-52
2023/01/27 10:42:03;;;;;;;0.28;0.25;;;20.60;30.30;;;;;;5061020;28;20056;-47
2023/01/27 10:44:37;;;;;;;0.30;0.20;;;20.60;30.30;;;;;;5062876;28;20028;-49
2023/01/27 10:47:22;;;;;;;;;;;20.60;30.30;;;;;;5062467;28;20064;-49
2023/01/27 10:49:52;;;;;;;0.82;0.20;;;20.60;30.30;;;;;;5044631;28;20264;-45
2023/01/27 10:52:29;;;;;;;0.65;0.35;;;20.60;30.30;;;;;;5060350;28;20528;-47
2023/01/27 10:55:07;;;;;;;0.20;0.20;;;20.60;30.30;;;;;;5062443;28;20036;-47
2023/01/27 10:57:44;;;;;;;0.60;0.30;;;20.60;30.30;;;;;;5062185;28;20032;-47
2023/01/27 11:00:33;;;;;;;0.77;0.20;;;20.60;30.30;;;;;;5061922;28;20029;-47
2023/01/27 11:03:29;;;;;;;0.20;0.20;;;20.60;30.30;;;;;;5064002;28;20143;-49
2023/01/27 11:06:07;;;;;;;0.40;0.20;;;20.60;30.30;;;;;;5062563;28;20036;-48
2023/01/27 11:08:39;;;;;;;1.70;0.40;;;20.70;30.30;;;;;;5059722;28;20064;-45
2023/01/27 11:14:03;;;;;;;0.73;0.20;;;20.70;30.30;;;;;;5046947;28;20029;-49
2023/01/27 11:16:36;;;;;;;0.45;0.20;;;20.70;30.30;;;;;;5063712;28;20450;-49
2023/01/27 11:19:25;;;;;;;0.73;0.22;;;20.70;30.20;;;;;;5064647;28;20174;-47
2023/01/27 11:21:53;;;;;;;0.28;0.20;;;20.70;30.20;;;;;;5062363;28;20116;-48
2023/01/27 11:24:27;;;;;;;0.30;0.20;;;20.80;30.30;;;;;;5061274;28;20036;-48
2023/01/27 11:27:08;;;;;;;0.13;0.10;;;20.70;30.20;;;;;;5061654;28;20029;-50
2023/01/27 11:29:49;;;;;;;0.32;0.30;;;20.80;30.20;;;;;;5061708;28;20033;-47
2023/01/27 11:32:48;;;;;;;0.45;0.20;;;20.80;30.80;;;;;;5059537;28;20469;-46
2023/01/27 11:35:15;;;;;;;0.52;0.30;;;20.80;30.10;;;;;;5044881;28;20040;-46
2023/01/27 11:37:44;;;;;;;0.85;0.38;;;20.80;30.10;;;;;;5061381;28;20029;-46
2023/01/27 11:40:16;;;;;;;1.30;0.40;;;20.80;30.20;;;;;;5047009;28;20024;-46
2023/01/27 11:42:42;;;;;;;0.80;0.30;;;20.80;30.10;;;;;;5060598;28;20021;-47
2023/01/27 11:45:17;;;;;;;1.30;0.50;;;20.80;30.10;;;;;;5055128;28;20037;-49
2023/01/27 11:47:46;;;;;;;0.85;0.43;;;20.90;30.20;;;;;;5055586;28;20036;-47
2023/01/27 11:50:19;;;;;;;0.73;0.40;;;20.90;30.10;;;;;;5054268;28;20067;-48
2023/01/27 11:52:49;;;;;;;1.02;0.30;;;20.90;30.10;;;;;;5053848;28;20033;-46
2023/01/27 11:55:20;;;;;;;1.08;0.30;;;20.90;30.10;;;;;;5057565;28;20089;-47
2023/01/27 11:57:53;;;;;;;0.88;0.40;;;20.90;30.10;;;;;;5056435;28;20037;-51
2023/01/27 12:00:37;;;;;;;1.10;0.40;;;20.90;30.00;;;;;;5057229;28;20052;-47
2023/01/27 12:03:06;;;;;;;1.48;0.50;;;20.90;30.00;;;;;;5057947;28;20033;-45
2023/01/27 12:05:41;;;;;;;0.90;0.50;;;20.90;30.00;;;;;;5057815;28;20065;-50
2023/01/27 12:08:07;;;;;;;0.73;0.50;;;20.90;30.00;;;;;;5057371;28;20032;-47
2023/01/27 12:10:43;;;;;;;1.45;0.45;;;20.90;30.00;;;;;;5057968;28;20029;-50
2023/01/27 12:13:17;;;;;;;0.65;0.40;;;20.90;30.00;;;;;;5061122;28;20055;-47
2023/01/27 12:15:48;;;;;;;;;;;20.90;30.00;;;;;;5059035;28;20326;-47
2023/01/27 12:18:15;;;;;;;0.77;0.30;;;20.90;30.00;;;;;;5057525;28;20003;-50
2023/01/27 12:20:56;;;;;;;0.40;0.28;;;20.90;30.00;;;;;;5065942;28;20515;-49
2023/01/27 12:23:40;;;;;;;0.93;0.40;;;20.90;30.00;;;;;;5056425;28;20048;-50
2023/01/27 12:26:08;;;;;;;0.98;0.40;;;20.90;30.00;;;;;;5064949;28;20020;-46
2023/01/27 12:28:49;;;;;;;0.85;0.38;;;20.90;30.00;;;;;;5072542;28;20039;-48
2023/01/27 12:31:23;;;;;;;0.75;0.40;;;20.90;30.00;;;;;;5063867;28;20059;-49
2023/01/27 12:34:04;;;;;;;0.50;0.30;;;20.90;30.00;;;;;;5063605;28;20127;-49
2023/01/27 12:36:38;;;;;;;1.23;0.40;;;20.90;30.00;;;;;;5061174;28;20279;-48
2023/01/27 12:39:23;;;;;;;1.48;0.30;;;20.90;30.00;;;;;;5066640;28;20344;-47
2023/01/27 12:41:49;;;;;;;0.90;0.40;;;20.90;30.00;;;;;;5063089;28;20024;-51
2023/01/27 12:44:18;;;;;;;0.30;0.20;;;20.90;30.10;;;;;;5062892;28;20056;-47
2023/01/27 12:47:03;;;;;;;1.42;0.45;;;20.90;30.10;;;;;;5063811;28;20348;-49
2023/01/27 12:49:41;;;;;;;0.77;0.40;;;20.90;30.10;;;;;;5064835;28;20044;-54
2023/01/27 12:52:18;;;;;;;0.52;0.20;;;20.90;30.20;;;;;;5074104;28;20036;-49
2023/01/27 12:54:45;;;;;;;0.82;0.40;;;20.90;30.30;;;;;;5065862;28;20024;-50
2023/01/27 12:57:16;;;;;;;1.23;0.40;;;20.90;30.40;;;;;;5055907;28;20033;-51
2023/01/27 12:59:49;;;;;;;1.02;0.40;;;20.90;30.50;;;;;;5057423;28;20057;-52
2023/01/27 13:02:19;;;;;;;0.73;0.47;;;20.90;30.60;;;;;;5058372;28;20112;-49
2023/01/27 13:04:54;;;;;;;0.38;0.20;;;20.90;30.60;;;;;;5055702;28;20445;-47
2023/01/27 13:07:36;;;;;;;0.77;0.45;;;20.80;30.60;;;;;;5065913;28;20025;-48
2023/01/27 13:10:05;;;;;;;1.08;0.40;;;20.80;30.60;;;;;;5056580;28;20040;-50
2023/01/27 13:12:47;;;;;;;0.60;0.45;;;20.80;30.60;;;;;;5070753;28;20041;-51
2023/01/27 13:15:18;;;;;;;0.35;0.30;;;20.80;30.60;;;;;;5075934;28;20048;-48
2023/01/27 13:17:46;;;;;;;0.32;0.30;;;20.80;30.60;;;;;;5062813;28;20167;-46
2023/01/27 13:20:27;;;;;;;0.30;0.20;;;20.80;30.60;;;;;;5044060;28;20040;-49
2023/01/27 13:23:23;;;;;;;0.38;0.30;;;20.80;30.60;;;;;;5061658;28;20067;-48
2023/01/27 13:25:59;;;;;;;0.47;0.32;;;20.80;30.60;;;;;;5063307;28;20108;-50
2023/01/27 13:28:30;;;;;;;0.63;0.28;;;20.70;30.60;;;;;;5062785;28;20179;-53
2023/01/27 13:31:07;;;;;;;0.85;0.40;;;20.70;30.60;;;;;;5056588;28;20040;-52
2023/01/27 13:33:49;;;;;;;1.00;0.30;;;20.70;30.80;;;;;;5062764;28;20047;-53
2023/01/27 13:36:19;;;;;;;0.98;0.50;;;20.70;30.80;;;;;;5063602;28;20032;-55
2023/01/27 13:38:53;;;;;;;0.60;0.40;;;20.70;30.90;;;;;;5064936;28;20032;-50